Time;durP1;ratioP1;P1;durP2;ratioP2;P2;SDS_P1;SDS_P2;PMS_P1;PMS_P2;Temp;Humidity;BMP_temperature;BMP_pressure;BME280_temperature;BME280_humidity;BME280_pressure;Samples;Min_cycle;Max_cycle;Signal;HPM_P1;HPM_P2
2022/12/23 00:01:06;;;;;;;54.78;26.85;;;7.00;99.90;;;;;;5120373;28;20039;-58
2022/12/23 00:03:32;;;;;;;56.70;27.20;;;6.90;99.90;;;;;;5138055;27;20122;-58
2022/12/23 00:05:58;;;;;;;60.15;27.50;;;7.00;99.90;;;;;;5138966;27;20042;-59
2022/12/23 00:08:25;;;;;;;63.25;31.02;;;6.90;99.90;;;;;;5138159;27;20084;-57
2022/12/23 00:10:53;;;;;;;65.72;30.80;;;7.20;99.90;;;;;;5147869;27;20039;-59
2022/12/23 00:16:08;;;;;;;60.05;29.13;;;7.20;99.90;;;;;;5158511;27;20130;-59
2022/12/23 00:18:34;;;;;;;62.35;30.75;;;7.20;99.90;;;;;;5158953;27;20443;-59
2022/12/23 00:21:03;;;;;;;59.28;29.83;;;6.90;99.90;;;;;;5157938;27;20050;-59
2022/12/23 00:23:34;;;;;;;63.03;28.77;;;7.00;99.90;;;;;;5158818;27;20035;-59
2022/12/23 00:25:59;;;;;;;60.95;27.83;;;7.20;99.90;;;;;;5158756;27;20034;-58
2022/12/23 00:28:26;;;;;;;60.63;28.73;;;7.00;99.90;;;;;;5140009;27;20593;-59
2022/12/23 00:30:54;;;;;;;63.08;30.45;;;7.20;99.90;;;;;;5159580;27;20031;-58
2022/12/23 00:33:28;;;;;;;67.65;32.35;;;6.90;99.90;;;;;;5158177;27;20072;-59
2022/12/23 00:35:54;;;;;;;64.00;29.02;;;7.30;99.90;;;;;;5140967;27;20091;-58
2022/12/23 00:42:52;;;;;;;69.32;29.65;;;7.20;99.90;;;;;;5139752;27;20034;-58
2022/12/23 00:43:59;;;;;;;62.75;29.08;;;7.00;99.90;;;;;;5158897;27;20076;-59
2022/12/23 00:46:26;;;;;;;68.22;27.58;;;7.10;99.90;;;;;;5158428;27;20041;-58
2022/12/23 00:51:36;;;;;;;66.75;29.67;;;6.80;99.90;;;;;;5157932;27;20063;-58
2022/12/23 00:54:02;;;;;;;65.43;28.00;;;7.10;99.90;;;;;;5157796;27;20532;-59
2022/12/23 00:56:28;;;;;;;64.18;26.70;;;6.80;99.90;;;;;;5142204;27;20043;-59
2022/12/23 00:58:53;;;;;;;68.10;29.85;;;7.20;99.90;;;;;;5137286;28;20586;-59
2022/12/23 01:06:47;;;;;;;67.65;28.80;;;7.00;99.90;;;;;;5137498;28;20132;-59
2022/12/23 01:09:13;;;;;;;61.17;26.77;;;6.80;99.90;;;;;;5120249;28;20036;-59
2022/12/23 01:11:39;;;;;;;67.97;26.13;;;7.10;99.90;;;;;;5118676;28;20209;-59
2022/12/23 01:14:05;;;;;;;60.60;27.90;;;7.00;99.90;;;;;;5138043;28;20047;-58
2022/12/23 01:16:30;;;;;;;67.90;30.05;;;6.90;99.90;;;;;;5138986;27;20074;-59
2022/12/23 01:18:57;;;;;;;61.05;27.80;;;6.90;99.90;;;;;;5141262;27;20049;-58
2022/12/23 01:21:23;;;;;;;69.40;29.35;;;6.80;99.90;;;;;;5140727;27;20047;-58
2022/12/23 01:23:49;;;;;;;64.40;28.85;;;7.10;99.90;;;;;;5122364;27;20031;-59
2022/12/23 01:26:14;;;;;;;60.97;28.38;;;7.00;99.90;;;;;;5142073;27;20047;-59
2022/12/23 01:28:40;;;;;;;67.68;29.95;;;7.20;99.90;;;;;;5140998;27;20035;-59
2022/12/23 01:31:08;;;;;;;68.97;30.20;;;7.00;99.90;;;;;;5141647;27;20047;-58
2022/12/23 01:33:34;;;;;;;68.90;29.75;;;6.90;99.90;;;;;;5140566;27;20553;-59
2022/12/23 01:36:02;;;;;;;69.50;29.15;;;6.80;99.90;;;;;;5141748;27;20042;-59
2022/12/23 01:38:28;;;;;;;73.15;28.92;;;6.90;99.90;;;;;;5141115;27;20047;-58
2022/12/23 01:40:54;;;;;;;63.25;27.73;;;6.90;99.90;;;;;;5141241;27;20064;-60
2022/12/23 01:43:20;;;;;;;67.38;28.77;;;7.00;99.90;;;;;;5141162;27;20047;-60
2022/12/23 01:45:46;;;;;;;66.43;28.63;;;7.10;99.90;;;;;;5140740;27;20062;-60
2022/12/23 01:48:17;;;;;;;66.18;28.92;;;6.80;99.90;;;;;;5141380;27;20064;-60
2022/12/23 01:50:59;;;;;;;64.47;28.17;;;7.10;99.90;;;;;;5121264;27;20035;-60
2022/12/23 01:53:30;;;;;;;62.05;27.58;;;7.10;99.90;;;;;;5140531;27;20076;-61
2022/12/23 01:56:16;;;;;;;63.05;27.23;;;7.00;99.90;;;;;;5121874;27;20082;-58
2022/12/23 01:58:49;;;;;;;68.20;27.90;;;6.70;99.90;;;;;;5139805;27;20464;-58
2022/12/23 02:04:04;;;;;;;77.65;29.55;;;6.60;99.90;;;;;;5140366;27;20120;-59
2022/12/23 02:09:22;;;;;;;66.10;26.85;;;6.80;99.90;;;;;;5141285;27;20426;-59
2022/12/23 02:12:20;;;;;;;69.25;28.73;;;6.70;99.90;;;;;;5139616;27;20050;-59
2022/12/23 02:18:29;;;;;;;68.97;27.60;;;6.60;99.90;;;;;;5139542;27;20053;-58
2022/12/23 02:21:23;;;;;;;77.10;28.02;;;6.50;99.90;;;;;;5139305;27;20054;-58
2022/12/23 02:24:23;;;;;;;69.22;27.13;;;6.80;99.90;;;;;;5139142;27;20070;-58
2022/12/23 02:27:08;;;;;;;62.38;26.42;;;6.50;99.90;;;;;;5139689;27;20504;-58
2022/12/23 02:29:48;;;;;;;68.38;27.17;;;7.00;99.90;;;;;;5139868;27;20172;-58
2022/12/23 02:32:32;;;;;;;68.95;28.13;;;6.50;99.90;;;;;;5140549;27;20053;-58
2022/12/23 02:35:16;;;;;;;80.93;30.10;;;6.60;99.90;;;;;;5140810;27;20039;-58
2022/12/23 02:37:59;;;;;;;64.78;26.55;;;6.90;99.90;;;;;;5139432;27;20051;-58
2022/12/23 02:40:53;;;;;;;69.95;26.92;;;6.80;99.90;;;;;;5140072;27;20054;-58
2022/12/23 02:43:30;;;;;;;69.90;27.05;;;6.90;99.90;;;;;;5140457;27;20043;-58
2022/12/23 02:46:05;;;;;;;73.97;29.33;;;6.80;99.90;;;;;;5139698;27;20075;-58
2022/12/23 02:48:47;;;;;;;61.05;25.17;;;6.50;99.90;;;;;;5140623;27;20042;-58
2022/12/23 02:51:15;;;;;;;66.80;26.50;;;6.50;99.90;;;;;;5139481;27;20080;-58
2022/12/23 02:53:51;;;;;;;78.20;25.58;;;6.80;99.90;;;;;;5139915;27;20035;-57
2022/12/23 02:56:19;;;;;;;72.43;26.80;;;6.80;99.90;;;;;;5154729;27;20054;-58
2022/12/23 02:58:59;;;;;;;73.80;27.23;;;6.80;99.90;;;;;;5141132;27;20087;-58
2022/12/23 03:01:27;;;;;;;74.10;26.90;;;6.40;99.90;;;;;;5160953;27;20041;-58
2022/12/23 03:03:53;;;;;;;66.40;26.65;;;6.50;99.90;;;;;;5141413;27;20043;-58
2022/12/23 03:06:24;;;;;;;72.72;26.80;;;6.70;99.90;;;;;;5141809;27;20130;-58
2022/12/23 03:08:53;;;;;;;77.38;27.45;;;6.50;99.90;;;;;;5160764;27;20031;-58
2022/12/23 03:11:19;;;;;;;93.63;28.80;;;6.50;99.90;;;;;;5160004;27;20049;-58
2022/12/23 03:13:56;;;;;;;96.38;30.42;;;6.90;99.90;;;;;;5159776;27;20059;-58
2022/12/23 03:16:59;;;;;;;118.00;31.15;;;6.50;99.90;;;;;;5160044;27;20046;-58
2022/12/23 03:19:54;;;;;;;124.90;29.30;;;6.50;99.90;;;;;;5160104;27;20046;-57
2022/12/23 03:22:39;;;;;;;85.72;30.73;;;6.50;99.90;;;;;;5160522;27;20052;-58
2022/12/23 03:25:20;;;;;;;107.20;31.08;;;6.90;99.90;;;;;;5159756;27;20057;-58
2022/12/23 03:27:54;;;;;;;84.75;28.13;;;6.40;99.90;;;;;;5160208;27;20076;-57
2022/12/23 03:30:22;;;;;;;219.85;33.08;;;6.40;99.90;;;;;;5159857;27;20074;-58
2022/12/23 03:32:48;;;;;;;127.47;30.70;;;6.40;99.90;;;;;;5159812;27;20062;-58
2022/12/23 03:35:19;;;;;;;121.65;29.10;;;6.40;99.90;;;;;;5160117;27;20057;-58
2022/12/23 03:37:48;;;;;;;130.45;31.02;;;6.50;99.90;;;;;;5159308;27;20071;-58
2022/12/23 03:40:17;;;;;;;95.50;29.75;;;6.30;99.90;;;;;;5159631;27;20042;-57
2022/12/23 03:42:49;;;;;;;76.25;28.58;;;6.50;99.90;;;;;;5159345;27;20050;-57
2022/12/23 03:45:22;;;;;;;85.68;27.98;;;6.70;99.90;;;;;;5158412;27;20513;-58
2022/12/23 03:47:58;;;;;;;71.93;27.48;;;6.70;99.90;;;;;;5160076;27;20039;-57
2022/12/23 03:50:24;;;;;;;140.70;28.98;;;6.70;99.90;;;;;;5159182;27;20047;-58
2022/12/23 03:53:09;;;;;;;77.28;27.38;;;6.30;99.90;;;;;;5160113;27;20042;-58
2022/12/23 03:55:47;;;;;;;76.40;28.02;;;6.30;99.90;;;;;;5150568;27;20051;-57
2022/12/23 03:58:31;;;;;;;66.90;27.33;;;6.50;99.90;;;;;;5138392;27;20054;-58
2022/12/23 04:01:08;;;;;;;66.88;26.20;;;6.70;99.90;;;;;;5138897;27;20062;-57
2022/12/23 04:03:46;;;;;;;64.82;26.17;;;6.70;99.90;;;;;;5122928;27;20486;-57
2022/12/23 04:06:15;;;;;;;73.20;27.67;;;6.40;99.90;;;;;;5159569;27;20391;-58
2022/12/23 04:08:43;;;;;;;78.90;27.63;;;6.40;99.90;;;;;;5159587;27;20039;-55
2022/12/23 04:11:09;;;;;;;78.80;28.20;;;6.60;99.90;;;;;;5159015;27;20039;-58
2022/12/23 04:13:34;;;;;;;93.43;27.90;;;6.50;99.90;;;;;;5159472;27;20086;-57
2022/12/23 04:16:01;;;;;;;67.25;26.65;;;6.70;99.90;;;;;;5158596;27;20426;-57
2022/12/23 04:18:28;;;;;;;76.22;27.10;;;6.40;99.90;;;;;;5159378;27;20051;-58
2022/12/23 04:20:53;;;;;;;63.30;26.75;;;6.30;99.90;;;;;;5159174;27;20103;-57
2022/12/23 04:23:19;;;;;;;69.57;26.42;;;6.70;99.90;;;;;;5159476;27;20062;-57
2022/12/23 04:25:45;;;;;;;74.45;27.23;;;6.50;99.90;;;;;;5159102;27;20055;-58
2022/12/23 04:28:10;;;;;;;66.90;26.23;;;6.40;99.90;;;;;;5158767;27;20057;-58
2022/12/23 04:30:36;;;;;;;76.80;27.27;;;6.70;99.90;;;;;;5159670;27;20042;-58
2022/12/23 04:33:02;;;;;;;78.53;27.65;;;6.70;99.90;;;;;;5158626;27;20500;-58
2022/12/23 04:35:28;;;;;;;68.95;27.50;;;6.70;99.90;;;;;;5159469;27;20508;-58
2022/12/23 04:37:54;;;;;;;69.10;26.52;;;6.40;99.90;;;;;;5158612;27;20086;-57
2022/12/23 04:40:20;;;;;;;72.90;24.35;;;6.70;99.90;;;;;;5159376;27;20727;-57
2022/12/23 04:42:45;;;;;;;64.50;26.27;;;6.50;99.90;;;;;;5123346;27;20071;-57
2022/12/23 04:45:11;;;;;;;65.03;25.55;;;6.80;99.90;;;;;;5158905;27;20062;-57
2022/12/23 04:47:37;;;;;;;63.38;24.88;;;6.40;99.90;;;;;;5140737;27;20074;-57
2022/12/23 04:50:03;;;;;;;64.03;26.65;;;6.50;99.90;;;;;;5158529;27;20042;-58
2022/12/23 04:52:29;;;;;;;69.43;26.25;;;6.50;99.90;;;;;;5163449;27;20053;-57
2022/12/23 04:54:54;;;;;;;60.28;24.30;;;6.70;99.90;;;;;;5159386;27;20066;-57
2022/12/23 04:57:20;;;;;;;63.20;24.75;;;6.70;99.90;;;;;;5142726;27;20108;-57
2022/12/23 04:59:46;;;;;;;61.47;24.27;;;6.60;99.90;;;;;;5123436;27;20092;-57
2022/12/23 05:02:11;;;;;;;60.67;23.85;;;6.40;99.90;;;;;;5141647;27;20051;-58
2022/12/23 05:04:37;;;;;;;69.47;23.95;;;6.20;99.90;;;;;;5142470;27;20042;-57
2022/12/23 05:07:03;;;;;;;60.42;23.63;;;6.30;99.90;;;;;;5141584;27;20053;-56
2022/12/23 05:09:28;;;;;;;69.13;23.05;;;6.60;99.90;;;;;;5142369;27;20039;-56
2022/12/23 05:11:54;;;;;;;63.03;22.85;;;6.60;99.90;;;;;;5122851;27;20081;-58
2022/12/23 05:14:20;;;;;;;53.97;20.85;;;6.30;99.90;;;;;;5141994;27;20112;-56
2022/12/23 05:16:45;;;;;;;52.55;21.75;;;6.40;99.90;;;;;;5141217;27;20050;-57
2022/12/23 05:19:11;;;;;;;57.00;22.75;;;6.60;99.90;;;;;;5142153;27;20039;-57
2022/12/23 05:21:37;;;;;;;58.15;24.05;;;6.40;99.90;;;;;;5142105;27;20054;-57
2022/12/23 05:24:03;;;;;;;68.78;24.33;;;6.40;99.90;;;;;;5141658;27;20062;-56
2022/12/23 05:26:28;;;;;;;87.78;23.50;;;6.20;99.90;;;;;;5141731;27;20077;-57
2022/12/23 05:28:54;;;;;;;69.43;22.48;;;6.30;99.90;;;;;;5141235;27;20307;-57
2022/12/23 05:31:20;;;;;;;78.82;23.75;;;6.50;99.90;;;;;;5141420;27;20541;-57
2022/12/23 05:33:46;;;;;;;83.13;24.38;;;6.30;99.90;;;;;;5141238;27;20078;-57
2022/12/23 05:36:12;;;;;;;89.18;23.23;;;6.50;99.90;;;;;;5141922;27;20103;-57
2022/12/23 05:38:37;;;;;;;63.45;22.15;;;6.30;99.90;;;;;;5141656;27;20031;-57
2022/12/23 05:41:04;;;;;;;69.90;23.63;;;6.60;99.90;;;;;;5141242;27;20054;-57
2022/12/23 05:43:29;;;;;;;94.97;21.60;;;6.30;99.90;;;;;;5141500;27;20035;-57
2022/12/23 05:45:55;;;;;;;73.15;22.67;;;6.60;99.90;;;;;;5140465;27;20046;-57
2022/12/23 05:48:21;;;;;;;58.72;20.88;;;6.40;99.90;;;;;;5141856;27;20132;-57
2022/12/23 05:50:51;;;;;;;61.53;24.27;;;6.60;99.90;;;;;;5140752;27;20050;-57
2022/12/23 05:53:18;;;;;;;62.95;23.40;;;6.50;99.90;;;;;;5141416;27;20049;-57
2022/12/23 05:55:43;;;;;;;54.47;20.58;;;6.10;99.90;;;;;;5141138;27;20070;-57
2022/12/23 05:58:09;;;;;;;69.65;21.42;;;6.50;99.90;;;;;;5140951;27;20490;-57
2022/12/23 06:00:35;;;;;;;62.22;21.73;;;6.50;99.90;;;;;;5141399;27;20498;-57
2022/12/23 06:03:02;;;;;;;58.70;22.58;;;6.60;99.90;;;;;;5139683;27;20051;-57
2022/12/23 06:05:27;;;;;;;58.17;21.27;;;6.50;99.90;;;;;;5137376;27;20074;-56
2022/12/23 06:07:53;;;;;;;76.97;23.33;;;6.50;99.90;;;;;;5136613;27;20054;-57
2022/12/23 06:10:19;;;;;;;60.25;22.52;;;6.50;99.90;;;;;;5118842;27;20499;-56
2022/12/23 06:12:44;;;;;;;64.80;22.33;;;6.20;99.90;;;;;;5135996;27;20062;-56
2022/12/23 06:15:10;;;;;;;64.15;21.10;;;6.60;99.90;;;;;;5136644;27;20047;-57
2022/12/23 06:17:36;;;;;;;138.85;24.05;;;6.20;99.90;;;;;;5117975;27;20050;-56
2022/12/23 06:20:02;;;;;;;116.63;25.33;;;6.20;99.90;;;;;;5135519;27;20043;-57
2022/12/23 06:22:28;;;;;;;82.13;20.95;;;6.10;99.90;;;;;;5118336;27;20194;-57
2022/12/23 06:24:54;;;;;;;92.18;22.15;;;6.50;99.90;;;;;;5136053;27;20075;-57
2022/12/23 06:27:20;;;;;;;264.52;26.25;;;6.40;99.90;;;;;;5136268;27;20051;-58
2022/12/23 06:29:45;;;;;;;206.18;26.92;;;6.40;99.90;;;;;;5135596;27;20078;-57
2022/12/23 06:32:11;;;;;;;103.60;21.30;;;6.10;99.90;;;;;;5137013;27;20057;-58
2022/12/23 06:34:37;;;;;;;91.15;21.15;;;6.40;99.90;;;;;;5136187;27;20070;-58
2022/12/23 06:37:02;;;;;;;62.78;21.60;;;6.30;99.90;;;;;;5136530;27;20114;-57
2022/12/23 06:39:28;;;;;;;69.25;21.60;;;6.20;99.90;;;;;;5138140;27;20138;-57
2022/12/23 06:41:54;;;;;;;74.43;21.25;;;6.10;99.90;;;;;;5137968;27;20047;-58
2022/12/23 06:44:19;;;;;;;57.72;20.13;;;6.00;99.90;;;;;;5140190;27;20035;-57
2022/12/23 06:46:45;;;;;;;154.43;22.55;;;6.40;99.90;;;;;;5139183;27;20084;-57
2022/12/23 06:49:11;;;;;;;116.70;20.30;;;5.90;99.90;;;;;;5120301;27;20450;-58
2022/12/23 06:51:36;;;;;;;51.03;17.98;;;5.90;99.90;;;;;;5139836;27;20100;-57
2022/12/23 06:54:02;;;;;;;100.50;19.15;;;6.30;99.90;;;;;;5139661;27;20095;-58
2022/12/23 06:56:28;;;;;;;94.47;19.75;;;6.30;99.90;;;;;;5156243;27;20466;-58
2022/12/23 06:58:53;;;;;;;82.47;17.33;;;6.20;99.90;;;;;;5159936;27;20119;-58
2022/12/23 07:01:19;;;;;;;60.28;16.67;;;6.10;99.90;;;;;;5161059;27;20073;-57
2022/12/23 07:03:45;;;;;;;66.38;16.88;;;6.00;99.90;;;;;;5141700;27;20042;-58
2022/12/23 07:06:11;;;;;;;55.00;17.48;;;6.20;99.90;;;;;;5160964;27;20046;-57
2022/12/23 07:08:36;;;;;;;54.78;17.10;;;6.30;99.90;;;;;;5160405;27;20038;-57
2022/12/23 07:11:03;;;;;;;65.93;18.35;;;6.30;99.90;;;;;;5160148;27;20049;-58
2022/12/23 07:13:31;;;;;;;74.07;18.77;;;6.20;99.90;;;;;;5159362;27;20050;-57
2022/12/23 07:15:58;;;;;;;43.53;17.80;;;6.10;99.90;;;;;;5159791;27;20457;-58
2022/12/23 07:18:24;;;;;;;54.03;16.60;;;6.30;99.90;;;;;;5160704;27;20038;-57
2022/12/23 07:20:50;;;;;;;44.65;16.15;;;6.30;99.90;;;;;;5159598;27;20067;-58
2022/12/23 07:23:16;;;;;;;46.22;16.55;;;6.30;99.90;;;;;;5160408;27;20125;-58
2022/12/23 07:25:42;;;;;;;54.28;17.00;;;6.30;99.90;;;;;;5159836;27;20041;-57
2022/12/23 07:28:08;;;;;;;43.38;17.42;;;6.40;99.90;;;;;;5160047;27;20070;-58
2022/12/23 07:30:34;;;;;;;47.70;17.65;;;6.30;99.90;;;;;;5160189;27;20046;-57
2022/12/23 07:32:59;;;;;;;41.95;16.05;;;6.10;99.90;;;;;;5159525;27;20474;-58
2022/12/23 07:35:25;;;;;;;40.30;15.35;;;6.00;99.90;;;;;;5141588;27;20091;-57
2022/12/23 07:37:55;;;;;;;37.75;14.45;;;6.00;99.90;;;;;;5159174;27;20046;-57
2022/12/23 07:40:24;;;;;;;40.53;15.63;;;6.10;99.90;;;;;;5160206;27;20397;-57
2022/12/23 07:42:54;;;;;;;42.38;16.98;;;6.20;99.90;;;;;;5140547;27;20082;-57
2022/12/23 07:45:20;;;;;;;39.97;14.85;;;6.10;99.90;;;;;;5140902;27;20027;-57
2022/12/23 07:47:45;;;;;;;42.65;15.98;;;6.10;99.90;;;;;;5160030;27;20048;-57
2022/12/23 07:50:11;;;;;;;37.65;14.60;;;6.30;99.90;;;;;;5159235;27;20035;-57
2022/12/23 07:52:37;;;;;;;36.90;14.63;;;6.40;99.90;;;;;;5159872;27;20042;-57
2022/12/23 07:55:04;;;;;;;36.88;14.10;;;6.20;99.90;;;;;;5155185;27;20039;-58
2022/12/23 07:57:36;;;;;;;30.98;11.48;;;6.20;99.90;;;;;;5139233;27;20047;-58
2022/12/23 08:00:09;;;;;;;32.15;12.35;;;6.20;99.90;;;;;;5138899;27;20078;-57
2022/12/23 08:02:35;;;;;;;35.47;13.13;;;6.50;99.90;;;;;;5138487;27;20817;-58
2022/12/23 08:05:01;;;;;;;33.08;12.82;;;6.50;99.90;;;;;;5138947;27;20430;-58
2022/12/23 08:07:27;;;;;;;29.05;12.38;;;6.40;99.90;;;;;;5138597;27;20046;-58
2022/12/23 08:09:52;;;;;;;28.88;12.02;;;6.20;99.90;;;;;;5138863;27;20496;-57
2022/12/23 08:12:18;;;;;;;27.70;9.75;;;6.60;99.90;;;;;;5138218;28;20058;-58
2022/12/23 08:14:44;;;;;;;28.33;11.23;;;6.60;99.90;;;;;;5138755;28;20134;-58
2022/12/23 08:17:10;;;;;;;31.15;11.52;;;6.60;99.90;;;;;;5138590;28;20043;-57
2022/12/23 08:19:36;;;;;;;26.85;10.73;;;6.30;99.90;;;;;;5138491;28;20035;-59
2022/12/23 08:22:02;;;;;;;26.58;12.05;;;6.50;99.90;;;;;;5138828;28;20042;-58
2022/12/23 08:24:27;;;;;;;27.65;11.52;;;6.60;99.90;;;;;;5138867;27;20047;-58
2022/12/23 08:26:53;;;;;;;27.33;10.35;;;6.60;99.90;;;;;;5143328;27;20085;-58
2022/12/23 08:29:19;;;;;;;22.38;9.93;;;6.70;99.90;;;;;;5142256;27;20040;-58
2022/12/23 08:31:45;;;;;;;26.63;10.32;;;6.50;99.90;;;;;;5142993;27;20488;-56
2022/12/23 08:34:11;;;;;;;25.55;10.48;;;6.50;99.90;;;;;;5142615;27;20400;-57
2022/12/23 08:36:38;;;;;;;24.80;10.13;;;6.60;99.90;;;;;;5142065;27;20043;-57
2022/12/23 08:39:07;;;;;;;26.35;10.80;;;6.60;99.90;;;;;;5124435;27;20050;-56
2022/12/23 08:41:37;;;;;;;22.75;9.75;;;6.40;99.90;;;;;;5142160;27;20068;-57
2022/12/23 08:44:03;;;;;;;23.40;9.90;;;6.50;99.90;;;;;;5142725;27;20074;-57
2022/12/23 08:46:29;;;;;;;30.15;11.52;;;6.50;99.90;;;;;;5142385;27;20039;-57
2022/12/23 08:48:55;;;;;;;26.67;10.38;;;6.30;99.90;;;;;;5142507;27;20047;-57
2022/12/23 08:51:22;;;;;;;28.17;10.77;;;6.50;99.90;;;;;;5123736;27;20061;-56
2022/12/23 08:53:49;;;;;;;21.30;7.85;;;6.30;99.90;;;;;;5141937;27;20035;-57
2022/12/23 08:56:20;;;;;;;23.65;8.90;;;6.50;99.90;;;;;;5156892;27;20078;-57
2022/12/23 08:58:48;;;;;;;26.05;9.88;;;6.40;99.90;;;;;;5162269;27;20046;-58
2022/12/23 09:01:16;;;;;;;25.05;10.18;;;6.70;99.90;;;;;;5163020;27;20067;-57
2022/12/23 09:03:43;;;;;;;27.33;10.35;;;6.40;99.90;;;;;;5143549;27;20573;-57
2022/12/23 09:06:12;;;;;;;24.30;9.35;;;6.40;99.90;;;;;;5163019;27;20043;-57
2022/12/23 09:08:39;;;;;;;31.55;12.20;;;6.50;99.90;;;;;;5163146;27;20034;-57
2022/12/23 09:11:08;;;;;;;29.58;12.35;;;6.80;99.90;;;;;;5162380;27;20068;-56
2022/12/23 09:13:33;;;;;;;26.88;12.63;;;6.60;99.90;;;;;;5144047;27;20043;-58
2022/12/23 09:15:59;;;;;;;30.63;12.40;;;6.50;99.90;;;;;;5162254;27;20042;-57
2022/12/23 09:18:25;;;;;;;32.50;13.20;;;6.60;99.90;;;;;;5162803;27;20050;-57
2022/12/23 09:21:00;;;;;;;28.85;13.63;;;6.60;99.90;;;;;;5162345;27;20030;-57
2022/12/23 09:23:26;;;;;;;26.90;12.88;;;6.70;99.90;;;;;;5162595;27;20049;-57
2022/12/23 09:25:52;;;;;;;30.02;12.10;;;6.50;99.90;;;;;;5162880;27;20042;-57
2022/12/23 09:28:19;;;;;;;27.77;12.50;;;6.50;99.90;;;;;;5162028;27;20115;-57
2022/12/23 09:30:44;;;;;;;29.60;12.50;;;6.50;99.90;;;;;;5162463;27;20236;-55
2022/12/23 09:33:10;;;;;;;27.95;12.27;;;6.70;99.90;;;;;;5161921;27;20042;-57
2022/12/23 09:35:35;;;;;;;26.95;12.25;;;6.70;99.90;;;;;;5162213;27;20039;-57
2022/12/23 09:38:01;;;;;;;31.13;12.45;;;6.50;99.90;;;;;;5161026;27;20034;-57
2022/12/23 09:40:31;;;;;;;22.65;10.60;;;6.50;99.90;;;;;;5162385;27;20050;-57
2022/12/23 09:43:05;;;;;;;26.02;12.27;;;6.70;99.90;;;;;;5162395;27;20038;-57
2022/12/23 09:45:48;;;;;;;28.00;12.30;;;6.70;99.90;;;;;;5161418;27;20389;-57
2022/12/23 09:48:18;;;;;;;27.02;12.80;;;6.80;99.90;;;;;;5162529;27;20046;-57
2022/12/23 09:50:45;;;;;;;26.42;12.43;;;6.70;99.90;;;;;;5161190;27;20042;-57
2022/12/23 09:53:11;;;;;;;30.08;13.73;;;6.80;99.90;;;;;;5162408;27;20065;-57
2022/12/23 09:55:49;;;;;;;24.80;12.23;;;6.60;99.90;;;;;;5152988;27;20461;-56
2022/12/23 09:58:26;;;;;;;24.15;12.23;;;6.60;99.90;;;;;;5140915;27;20464;-57
2022/12/23 10:01:12;;;;;;;24.38;11.98;;;6.60;99.90;;;;;;5141371;27;20046;-57
2022/12/23 10:04:11;;;;;;;27.25;12.25;;;6.90;99.90;;;;;;5140548;27;20043;-55
2022/12/23 10:06:39;;;;;;;26.60;12.00;;;6.90;99.90;;;;;;5140466;27;20102;-57
2022/12/23 10:09:06;;;;;;;27.95;12.02;;;6.70;99.90;;;;;;5123503;27;20049;-57
2022/12/23 10:11:40;;;;;;;25.48;11.73;;;6.70;99.90;;;;;;5140046;27;20039;-58
2022/12/23 10:14:25;;;;;;;29.38;11.93;;;6.70;99.90;;;;;;5141002;27;20066;-57
2022/12/23 10:17:09;;;;;;;25.98;10.98;;;6.90;99.90;;;;;;5140606;27;20050;-56
2022/12/23 10:19:46;;;;;;;23.02;10.82;;;6.90;99.90;;;;;;5140562;27;20043;-58
2022/12/23 10:22:11;;;;;;;25.15;11.48;;;7.00;99.90;;;;;;5141181;27;20103;-57
2022/12/23 10:24:40;;;;;;;27.33;11.75;;;6.90;99.90;;;;;;5140227;27;20062;-56
2022/12/23 10:27:38;;;;;;;26.58;12.57;;;7.20;99.90;;;;;;5122336;27;20050;-57
2022/12/23 10:30:19;;;;;;;32.70;13.32;;;7.10;99.90;;;;;;5122096;27;20042;-57
2022/12/23 10:33:12;;;;;;;35.58;14.05;;;7.00;99.90;;;;;;5140133;27;20050;-57
2022/12/23 10:35:41;;;;;;;;;;;6.90;99.90;;;;;;5122830;27;20074;-58
2022/12/23 10:38:06;;;;;;;32.67;14.63;;;7.00;99.90;;;;;;5139890;27;19979;-57
2022/12/23 10:40:53;;;;;;;37.95;15.57;;;6.90;99.90;;;;;;5140406;27;20039;-57
2022/12/23 10:43:33;;;;;;;40.63;15.10;;;7.10;99.90;;;;;;5140245;27;20410;-57
2022/12/23 10:46:37;;;;;;;38.20;15.20;;;7.00;99.90;;;;;;5139384;27;20051;-58
2022/12/23 10:49:27;;;;;;;36.80;15.13;;;7.20;99.90;;;;;;5121691;27;20050;-57
2022/12/23 10:51:59;;;;;;;33.55;14.27;;;7.20;99.90;;;;;;5140313;27;20039;-57
2022/12/23 10:54:32;;;;;;;36.55;14.30;;;7.10;99.90;;;;;;5139677;27;20077;-58
2022/12/23 10:56:59;;;;;;;36.65;14.32;;;7.00;99.90;;;;;;5160784;27;20039;-57
2022/12/23 10:59:31;;;;;;;34.25;14.10;;;7.10;99.90;;;;;;5159881;27;20101;-57
2022/12/23 11:02:35;;;;;;;35.22;14.82;;;7.00;99.90;;;;;;5142033;27;20041;-57
2022/12/23 11:05:01;;;;;;;28.05;12.48;;;7.00;99.90;;;;;;5144291;27;20043;-56
2022/12/23 11:07:28;;;;;;;32.92;13.93;;;7.00;99.90;;;;;;5159902;27;20115;-57
2022/12/23 11:10:12;;;;;;;31.67;13.73;;;7.20;99.90;;;;;;5160672;27;20031;-57
2022/12/23 11:12:43;;;;;;;29.08;12.98;;;7.20;99.90;;;;;;5159684;27;20440;-57
2022/12/23 11:15:35;;;;;;;30.33;14.17;;;7.00;99.90;;;;;;5160264;27;20079;-57
2022/12/23 11:18:12;;;;;;;27.57;14.33;;;7.30;99.90;;;;;;5136976;27;20085;-57
2022/12/23 11:20:40;;;;;;;28.40;13.00;;;7.20;99.90;;;;;;5159857;27;20358;-57
2022/12/23 11:23:24;;;;;;;29.52;13.27;;;7.10;99.90;;;;;;5141946;27;20054;-57
2022/12/23 11:25:59;;;;;;;29.90;12.60;;;7.30;99.90;;;;;;5160084;27;20094;-56
2022/12/23 11:28:25;;;;;;;25.33;12.05;;;7.20;99.90;;;;;;5159841;27;20035;-57
2022/12/23 11:31:06;;;;;;;28.67;11.82;;;7.40;99.90;;;;;;5160345;27;20062;-56
2022/12/23 11:33:39;;;;;;;27.63;12.85;;;7.20;99.90;;;;;;5159778;27;20104;-56
2022/12/23 11:36:23;;;;;;;22.77;10.70;;;7.20;99.90;;;;;;5159912;27;20057;-56
2022/12/23 11:38:56;;;;;;;23.67;11.38;;;7.50;99.90;;;;;;5160105;27;20039;-55
2022/12/23 11:41:28;;;;;;;25.85;12.30;;;7.30;99.90;;;;;;5159336;27;20042;-56
2022/12/23 11:44:22;;;;;;;26.53;12.00;;;7.20;99.90;;;;;;5159824;27;20596;-56
2022/12/23 11:46:49;;;;;;;22.58;11.10;;;7.50;99.90;;;;;;5147861;27;20533;-54
2022/12/23 11:49:24;;;;;;;23.92;11.75;;;7.30;99.90;;;;;;5159713;27;20543;-57
2022/12/23 11:52:00;;;;;;;25.75;12.23;;;7.30;99.90;;;;;;5159840;27;20092;-57
2022/12/23 11:54:27;;;;;;;24.27;11.52;;;7.40;99.90;;;;;;5159132;27;20289;-57
2022/12/23 11:56:54;;;;;;;25.15;11.00;;;7.50;99.90;;;;;;5139797;27;20039;-57
2022/12/23 11:59:49;;;;;;;25.58;12.07;;;7.40;99.90;;;;;;5138042;27;20095;-57
2022/12/23 12:02:26;;;;;;;23.05;11.65;;;7.20;99.90;;;;;;5136591;27;20051;-57
2022/12/23 12:05:15;;;;;;;25.52;12.15;;;7.20;99.90;;;;;;5120508;27;20073;-56
2022/12/23 12:07:45;;;;;;;27.27;13.05;;;7.20;99.90;;;;;;5124671;27;20055;-57
2022/12/23 12:10:32;;;;;;;30.20;14.23;;;7.30;99.90;;;;;;5139013;27;20039;-56
2022/12/23 12:13:02;;;;;;;27.45;13.98;;;7.20;99.90;;;;;;5138632;27;20051;-56
2022/12/23 12:15:42;;;;;;;31.23;15.13;;;7.20;99.90;;;;;;5137961;28;20099;-56
2022/12/23 12:18:12;;;;;;;33.72;16.05;;;7.10;99.90;;;;;;5138911;28;20075;-56
2022/12/23 12:20:44;;;;;;;34.78;16.35;;;7.40;99.90;;;;;;5138316;28;20039;-56
2022/12/23 12:23:34;;;;;;;33.15;16.33;;;7.10;99.90;;;;;;5138688;28;20074;-57
2022/12/23 12:26:10;;;;;;;27.15;14.30;;;7.10;99.90;;;;;;5138991;28;20482;-57
2022/12/23 12:28:48;;;;;;;28.02;14.18;;;7.40;99.90;;;;;;5119525;28;20074;-57
2022/12/23 12:31:26;;;;;;;32.20;15.32;;;7.10;99.90;;;;;;5103204;28;20321;-56
2022/12/23 12:33:55;;;;;;;27.13;13.85;;;7.30;99.90;;;;;;5138391;28;20107;-55
2022/12/23 12:36:32;;;;;;;26.40;13.98;;;7.20;99.90;;;;;;5138119;28;20043;-58
2022/12/23 12:38:59;;;;;;;28.40;12.68;;;7.30;99.90;;;;;;5139095;28;20035;-56
2022/12/23 12:41:37;;;;;;;27.70;15.50;;;7.30;99.90;;;;;;5119500;28;20047;-56
2022/12/23 12:44:29;;;;;;;30.38;14.50;;;7.30;99.90;;;;;;5138827;28;20039;-56
2022/12/23 12:47:02;;;;;;;26.60;13.93;;;7.00;99.90;;;;;;5138140;28;20055;-57
2022/12/23 12:49:34;;;;;;;23.98;12.43;;;7.00;99.90;;;;;;5138056;28;20039;-57
2022/12/23 12:52:09;;;;;;;;;;;7.50;99.90;;;;;;5139329;28;20047;-56
2022/12/23 12:54:44;;;;;;;24.95;11.82;;;7.20;99.90;;;;;;5137776;28;19938;-56
2022/12/23 12:57:19;;;;;;;22.83;10.63;;;7.30;99.90;;;;;;5138549;28;20043;-56
2022/12/23 12:59:48;;;;;;;20.35;10.68;;;7.30;99.90;;;;;;5138311;28;20403;-56
2022/12/23 13:02:59;;;;;;;24.63;11.73;;;7.10;99.90;;;;;;5137917;28;20035;-57
2022/12/23 13:06:03;;;;;;;23.95;11.20;;;7.10;99.90;;;;;;5129332;28;20540;-57
2022/12/23 13:08:31;;;;;;;25.90;11.13;;;7.30;99.90;;;;;;5102719;28;20042;-55
2022/12/23 13:11:03;;;;;;;25.45;11.82;;;7.20;99.90;;;;;;5138056;27;20479;-57
2022/12/23 13:13:57;;;;;;;25.42;10.93;;;7.10;99.90;;;;;;5123365;27;20047;-55
2022/12/23 13:16:44;;;;;;;27.83;12.45;;;7.10;99.90;;;;;;5141213;27;20047;-57
2022/12/23 13:19:25;;;;;;;20.90;10.68;;;7.50;99.90;;;;;;5141798;27;20043;-56
2022/12/23 13:22:15;;;;;;;25.98;11.18;;;7.40;99.90;;;;;;5142213;27;20594;-56